sensor_id;sensor_type;location;lat;lon;timestamp;temperature;humidity
24450;DHT22;13349;50.984;5.822;2022-10-22T00:01:13;14.70;99.90
24450;DHT22;13349;50.984;5.822;2022-10-22T00:03:41;14.60;99.90
24450;DHT22;13349;50.984;5.822;2022-10-22T00:06:08;14.60;99.90
24450;DHT22;13349;50.984;5.822;2022-10-22T00:08:35;14.60;99.90
24450;DHT22;13349;50.984;5.822;2022-10-22T00:11:08;14.60;99.90
24450;DHT22;13349;50.984;5.822;2022-10-22T00:13:37;14.60;99.90
24450;DHT22;13349;50.984;5.822;2022-10-22T00:16:04;14.70;99.90
24450;DHT22;13349;50.984;5.822;2022-10-22T00:18:32;14.80;79.40
24450;DHT22;13349;50.984;5.822;2022-10-22T00:20:59;14.70;1.00
24450;DHT22;13349;50.984;5.822;2022-10-22T00:23:26;14.60;15.80
24450;DHT22;13349;50.984;5.822;2022-10-22T00:25:53;14.50;7.80
24450;DHT22;13349;50.984;5.822;2022-10-22T00:28:21;14.50;99.90
24450;DHT22;13349;50.984;5.822;2022-10-22T00:30:54;14.50;72.20
24450;DHT22;13349;50.984;5.822;2022-10-22T00:33:22;14.50;1.00
24450;DHT22;13349;50.984;5.822;2022-10-22T00:35:49;14.60;1.00
24450;DHT22;13349;50.984;5.822;2022-10-22T00:38:17;14.60;1.00
24450;DHT22;13349;50.984;5.822;2022-10-22T00:40:44;14.60;1.00
24450;DHT22;13349;50.984;5.822;2022-10-22T00:43:13;14.70;1.00
24450;DHT22;13349;50.984;5.822;2022-10-22T00:45:40;14.60;1.00
24450;DHT22;13349;50.984;5.822;2022-10-22T00:48:10;14.60;1.00
24450;DHT22;13349;50.984;5.822;2022-10-22T00:50:40;14.60;1.00
24450;DHT22;13349;50.984;5.822;2022-10-22T00:53:11;14.60;1.00
24450;DHT22;13349;50.984;5.822;2022-10-22T00:55:39;14.60;1.00
24450;DHT22;13349;50.984;5.822;2022-10-22T00:58:08;14.60;1.00
24450;DHT22;13349;50.984;5.822;2022-10-22T01:00:35;14.60;1.00
24450;DHT22;13349;50.984;5.822;2022-10-22T01:03:02;14.60;1.00
24450;DHT22;13349;50.984;5.822;2022-10-22T01:05:36;14.60;1.00
24450;DHT22;13349;50.984;5.822;2022-10-22T01:08:05;14.70;1.00
24450;DHT22;13349;50.984;5.822;2022-10-22T01:10:46;14.70;1.00
24450;DHT22;13349;50.984;5.822;2022-10-22T01:13:26;14.70;1.00
24450;DHT22;13349;50.984;5.822;2022-10-22T01:16:01;14.80;1.00
24450;DHT22;13349;50.984;5.822;2022-10-22T01:18:37;14.80;1.00
24450;DHT22;13349;50.984;5.822;2022-10-22T01:21:17;14.80;1.00
24450;DHT22;13349;50.984;5.822;2022-10-22T01:24:14;14.80;1.00
24450;DHT22;13349;50.984;5.822;2022-10-22T01:29:42;14.90;1.00
24450;DHT22;13349;50.984;5.822;2022-10-22T01:32:14;14.90;1.00
24450;DHT22;13349;50.984;5.822;2022-10-22T01:34:45;14.80;1.00
24450;DHT22;13349;50.984;5.822;2022-10-22T01:37:14;14.90;1.00
24450;DHT22;13349;50.984;5.822;2022-10-22T01:39:45;14.90;1.00
24450;DHT22;13349;50.984;5.822;2022-10-22T01:42:14;14.80;1.00
24450;DHT22;13349;50.984;5.822;2022-10-22T01:44:43;14.90;1.00
24450;DHT22;13349;50.984;5.822;2022-10-22T01:47:23;14.90;99.90
24450;DHT22;13349;50.984;5.822;2022-10-22T01:50:19;14.90;99.90
24450;DHT22;13349;50.984;5.822;2022-10-22T01:53:12;14.80;99.90
24450;DHT22;13349;50.984;5.822;2022-10-22T01:55:55;14.70;99.90
24450;DHT22;13349;50.984;5.822;2022-10-22T01:58:36;14.70;1.00
24450;DHT22;13349;50.984;5.822;2022-10-22T02:01:12;14.80;1.00
24450;DHT22;13349;50.984;5.822;2022-10-22T02:03:45;14.80;1.00
24450;DHT22;13349;50.984;5.822;2022-10-22T02:06:18;14.80;99.90
24450;DHT22;13349;50.984;5.822;2022-10-22T02:08:48;14.80;1.00
24450;DHT22;13349;50.984;5.822;2022-10-22T02:11:16;15.00;1.00
24450;DHT22;13349;50.984;5.822;2022-10-22T02:13:46;15.00;99.90
24450;DHT22;13349;50.984;5.822;2022-10-22T02:16:19;15.00;99.90
24450;DHT22;13349;50.984;5.822;2022-10-22T02:18:49;15.00;99.90
24450;DHT22;13349;50.984;5.822;2022-10-22T02:21:19;15.00;99.90
24450;DHT22;13349;50.984;5.822;2022-10-22T02:23:46;15.00;99.90
24450;DHT22;13349;50.984;5.822;2022-10-22T02:26:18;15.00;99.90
24450;DHT22;13349;50.984;5.822;2022-10-22T02:28:55;14.90;99.90
24450;DHT22;13349;50.984;5.822;2022-10-22T02:31:27;15.00;1.00
24450;DHT22;13349;50.984;5.822;2022-10-22T02:33:58;15.00;1.00
24450;DHT22;13349;50.984;5.822;2022-10-22T02:36:27;15.20;1.00
24450;DHT22;13349;50.984;5.822;2022-10-22T02:38:55;15.20;99.90
24450;DHT22;13349;50.984;5.822;2022-10-22T02:41:23;15.20;1.00
24450;DHT22;13349;50.984;5.822;2022-10-22T02:43:54;15.30;99.90
24450;DHT22;13349;50.984;5.822;2022-10-22T02:46:22;15.50;99.90
24450;DHT22;13349;50.984;5.822;2022-10-22T02:48:51;15.50;99.90
24450;DHT22;13349;50.984;5.822;2022-10-22T02:51:18;15.60;99.90
24450;DHT22;13349;50.984;5.822;2022-10-22T02:53:46;15.70;99.90
24450;DHT22;13349;50.984;5.822;2022-10-22T02:56:13;15.70;81.40
24450;DHT22;13349;50.984;5.822;2022-10-22T02:58:40;15.80;16.40
24450;DHT22;13349;50.984;5.822;2022-10-22T03:01:07;15.70;2.20
24450;DHT22;13349;50.984;5.822;2022-10-22T03:03:35;15.70;1.00
24450;DHT22;13349;50.984;5.822;2022-10-22T03:06:04;15.60;67.10
24450;DHT22;13349;50.984;5.822;2022-10-22T03:08:31;15.50;37.20
24450;DHT22;13349;50.984;5.822;2022-10-22T03:10:58;15.50;99.90
24450;DHT22;13349;50.984;5.822;2022-10-22T03:13:25;15.50;99.90
24450;DHT22;13349;50.984;5.822;2022-10-22T03:15:53;15.40;99.90
24450;DHT22;13349;50.984;5.822;2022-10-22T03:18:20;15.50;99.90
24450;DHT22;13349;50.984;5.822;2022-10-22T03:20:47;15.60;99.90
24450;DHT22;13349;50.984;5.822;2022-10-22T03:23:18;15.70;99.90
24450;DHT22;13349;50.984;5.822;2022-10-22T03:25:47;15.60;99.90
24450;DHT22;13349;50.984;5.822;2022-10-22T03:28:16;15.60;99.90
24450;DHT22;13349;50.984;5.822;2022-10-22T03:30:44;15.60;99.90
24450;DHT22;13349;50.984;5.822;2022-10-22T03:33:11;15.60;99.90
24450;DHT22;13349;50.984;5.822;2022-10-22T03:35:42;15.50;99.90
24450;DHT22;13349;50.984;5.822;2022-10-22T03:38:10;15.60;96.40
24450;DHT22;13349;50.984;5.822;2022-10-22T03:40:40;15.50;99.90
24450;DHT22;13349;50.984;5.822;2022-10-22T03:43:08;15.50;99.90
24450;DHT22;13349;50.984;5.822;2022-10-22T03:45:35;15.40;99.90
24450;DHT22;13349;50.984;5.822;2022-10-22T03:48:03;15.40;99.90
24450;DHT22;13349;50.984;5.822;2022-10-22T03:50:30;15.50;99.90
24450;DHT22;13349;50.984;5.822;2022-10-22T03:52:57;15.40;99.90
24450;DHT22;13349;50.984;5.822;2022-10-22T03:55:24;15.50;99.90
24450;DHT22;13349;50.984;5.822;2022-10-22T03:57:53;15.40;99.90
24450;DHT22;13349;50.984;5.822;2022-10-22T04:00:20;15.40;99.90
24450;DHT22;13349;50.984;5.822;2022-10-22T04:02:47;15.40;99.90
24450;DHT22;13349;50.984;5.822;2022-10-22T04:05:15;15.40;99.90
24450;DHT22;13349;50.984;5.822;2022-10-22T04:07:42;15.30;99.90
24450;DHT22;13349;50.984;5.822;2022-10-22T04:10:09;15.20;99.90
24450;DHT22;13349;50.984;5.822;2022-10-22T04:12:36;15.20;99.90
24450;DHT22;13349;50.984;5.822;2022-10-22T04:15:06;15.10;99.90
24450;DHT22;13349;50.984;5.822;2022-10-22T04:17:34;15.10;1.00
24450;DHT22;13349;50.984;5.822;2022-10-22T04:20:03;15.10;1.00
24450;DHT22;13349;50.984;5.822;2022-10-22T04:22:32;15.10;1.00
24450;DHT22;13349;50.984;5.822;2022-10-22T04:25:00;15.00;1.00
24450;DHT22;13349;50.984;5.822;2022-10-22T04:27:29;15.00;1.00
24450;DHT22;13349;50.984;5.822;2022-10-22T04:29:57;15.10;1.00
24450;DHT22;13349;50.984;5.822;2022-10-22T04:32:26;15.00;1.00
24450;DHT22;13349;50.984;5.822;2022-10-22T04:34:53;15.10;1.00
24450;DHT22;13349;50.984;5.822;2022-10-22T04:37:21;15.10;1.00
24450;DHT22;13349;50.984;5.822;2022-10-22T04:39:48;14.90;1.00
24450;DHT22;13349;50.984;5.822;2022-10-22T04:42:15;14.90;1.00
24450;DHT22;13349;50.984;5.822;2022-10-22T04:44:42;15.00;1.00
24450;DHT22;13349;50.984;5.822;2022-10-22T04:47:10;15.00;1.00
24450;DHT22;13349;50.984;5.822;2022-10-22T04:49:39;14.90;1.00
24450;DHT22;13349;50.984;5.822;2022-10-22T04:52:06;15.00;1.00
24450;DHT22;13349;50.984;5.822;2022-10-22T04:54:33;15.10;99.90
24450;DHT22;13349;50.984;5.822;2022-10-22T04:57:00;15.00;99.90
24450;DHT22;13349;50.984;5.822;2022-10-22T04:59:28;15.00;99.90
24450;DHT22;13349;50.984;5.822;2022-10-22T05:01:55;15.00;99.90
24450;DHT22;13349;50.984;5.822;2022-10-22T05:04:22;14.90;99.90
24450;DHT22;13349;50.984;5.822;2022-10-22T05:06:51;15.00;99.90
24450;DHT22;13349;50.984;5.822;2022-10-22T05:09:19;15.10;1.00
24450;DHT22;13349;50.984;5.822;2022-10-22T05:11:48;15.00;1.00
24450;DHT22;13349;50.984;5.822;2022-10-22T05:14:17;15.00;1.00
24450;DHT22;13349;50.984;5.822;2022-10-22T05:16:45;14.90;1.00
24450;DHT22;13349;50.984;5.822;2022-10-22T05:19:16;14.90;1.00
24450;DHT22;13349;50.984;5.822;2022-10-22T05:21:44;15.00;1.00
24450;DHT22;13349;50.984;5.822;2022-10-22T05:24:12;14.90;1.00
24450;DHT22;13349;50.984;5.822;2022-10-22T05:26:40;14.90;1.00
24450;DHT22;13349;50.984;5.822;2022-10-22T05:29:07;14.90;1.00
24450;DHT22;13349;50.984;5.822;2022-10-22T05:31:34;14.80;1.00
24450;DHT22;13349;50.984;5.822;2022-10-22T05:34:01;14.90;1.00
24450;DHT22;13349;50.984;5.822;2022-10-22T05:36:29;14.90;1.00
24450;DHT22;13349;50.984;5.822;2022-10-22T05:38:56;14.90;1.00
24450;DHT22;13349;50.984;5.822;2022-10-22T05:41:28;14.80;1.00
24450;DHT22;13349;50.984;5.822;2022-10-22T05:43:56;14.90;1.00
24450;DHT22;13349;50.984;5.822;2022-10-22T05:46:25;14.90;1.00
24450;DHT22;13349;50.984;5.822;2022-10-22T05:48:54;14.90;1.00
24450;DHT22;13349;50.984;5.822;2022-10-22T05:51:22;14.90;1.00
24450;DHT22;13349;50.984;5.822;2022-10-22T05:53:51;14.90;1.00
24450;DHT22;13349;50.984;5.822;2022-10-22T05:56:18;14.90;1.00
24450;DHT22;13349;50.984;5.822;2022-10-22T05:58:48;14.80;1.00
24450;DHT22;13349;50.984;5.822;2022-10-22T06:01:17;14.80;1.00
24450;DHT22;13349;50.984;5.822;2022-10-22T06:03:45;14.80;1.00
24450;DHT22;13349;50.984;5.822;2022-10-22T06:06:18;14.90;99.90
24450;DHT22;13349;50.984;5.822;2022-10-22T06:08:46;14.80;99.90
24450;DHT22;13349;50.984;5.822;2022-10-22T06:11:14;14.80;99.90
24450;DHT22;13349;50.984;5.822;2022-10-22T06:13:42;14.80;99.90
24450;DHT22;13349;50.984;5.822;2022-10-22T06:16:11;14.90;99.90
24450;DHT22;13349;50.984;5.822;2022-10-22T06:18:38;14.80;99.90
24450;DHT22;13349;50.984;5.822;2022-10-22T06:21:06;14.80;99.90
24450;DHT22;13349;50.984;5.822;2022-10-22T06:23:34;14.80;99.90
24450;DHT22;13349;50.984;5.822;2022-10-22T06:26:01;14.70;99.90
24450;DHT22;13349;50.984;5.822;2022-10-22T06:28:29;14.70;99.90
24450;DHT22;13349;50.984;5.822;2022-10-22T06:30:56;14.70;99.90
24450;DHT22;13349;50.984;5.822;2022-10-22T06:33:26;14.60;99.90
24450;DHT22;13349;50.984;5.822;2022-10-22T06:35:54;14.60;99.90
24450;DHT22;13349;50.984;5.822;2022-10-22T06:38:21;14.60;1.00
24450;DHT22;13349;50.984;5.822;2022-10-22T06:40:48;14.60;1.00
24450;DHT22;13349;50.984;5.822;2022-10-22T06:43:15;14.60;1.00
24450;DHT22;13349;50.984;5.822;2022-10-22T06:45:43;14.60;99.90
24450;DHT22;13349;50.984;5.822;2022-10-22T06:48:10;14.70;99.90
24450;DHT22;13349;50.984;5.822;2022-10-22T06:50:38;14.60;99.90
24450;DHT22;13349;50.984;5.822;2022-10-22T06:53:06;14.60;99.90
24450;DHT22;13349;50.984;5.822;2022-10-22T06:55:34;14.70;99.90
24450;DHT22;13349;50.984;5.822;2022-10-22T06:58:02;14.80;99.90
24450;DHT22;13349;50.984;5.822;2022-10-22T07:00:29;14.80;99.90
24450;DHT22;13349;50.984;5.822;2022-10-22T07:02:56;14.90;99.90
24450;DHT22;13349;50.984;5.822;2022-10-22T07:05:23;14.90;99.90
24450;DHT22;13349;50.984;5.822;2022-10-22T07:07:52;14.80;99.90
24450;DHT22;13349;50.984;5.822;2022-10-22T07:10:19;14.90;99.90
24450;DHT22;13349;50.984;5.822;2022-10-22T07:12:47;14.90;99.90
24450;DHT22;13349;50.984;5.822;2022-10-22T07:15:14;14.90;99.90
24450;DHT22;13349;50.984;5.822;2022-10-22T07:17:41;14.90;99.90
24450;DHT22;13349;50.984;5.822;2022-10-22T07:20:09;15.00;28.30
24450;DHT22;13349;50.984;5.822;2022-10-22T07:22:37;14.90;76.80
24450;DHT22;13349;50.984;5.822;2022-10-22T07:25:06;15.10;1.00
24450;DHT22;13349;50.984;5.822;2022-10-22T07:27:34;15.20;1.00
24450;DHT22;13349;50.984;5.822;2022-10-22T07:30:01;15.20;1.00
24450;DHT22;13349;50.984;5.822;2022-10-22T07:32:28;15.30;1.00
24450;DHT22;13349;50.984;5.822;2022-10-22T07:34:55;15.30;1.00
24450;DHT22;13349;50.984;5.822;2022-10-22T07:37:23;15.20;1.00
24450;DHT22;13349;50.984;5.822;2022-10-22T07:39:50;15.20;1.00
24450;DHT22;13349;50.984;5.822;2022-10-22T07:42:18;15.10;1.00
24450;DHT22;13349;50.984;5.822;2022-10-22T07:44:45;15.10;1.00
24450;DHT22;13349;50.984;5.822;2022-10-22T07:47:13;15.30;1.00
24450;DHT22;13349;50.984;5.822;2022-10-22T07:49:40;15.30;1.00
24450;DHT22;13349;50.984;5.822;2022-10-22T07:52:07;15.50;1.00
24450;DHT22;13349;50.984;5.822;2022-10-22T07:54:34;15.70;1.00
24450;DHT22;13349;50.984;5.822;2022-10-22T07:57:01;15.90;1.00
24450;DHT22;13349;50.984;5.822;2022-10-22T07:59:30;16.00;99.90
24450;DHT22;13349;50.984;5.822;2022-10-22T08:01:58;16.00;99.90
24450;DHT22;13349;50.984;5.822;2022-10-22T08:04:25;15.90;99.90
24450;DHT22;13349;50.984;5.822;2022-10-22T08:06:52;15.80;99.90
24450;DHT22;13349;50.984;5.822;2022-10-22T08:09:19;15.80;99.90
24450;DHT22;13349;50.984;5.822;2022-10-22T08:11:47;15.80;99.90
24450;DHT22;13349;50.984;5.822;2022-10-22T08:14:14;15.80;99.90
24450;DHT22;13349;50.984;5.822;2022-10-22T08:16:42;15.80;99.90
24450;DHT22;13349;50.984;5.822;2022-10-22T08:19:10;15.90;99.90
24450;DHT22;13349;50.984;5.822;2022-10-22T08:21:38;15.90;99.90
24450;DHT22;13349;50.984;5.822;2022-10-22T08:24:06;15.90;99.90
24450;DHT22;13349;50.984;5.822;2022-10-22T08:26:33;15.90;99.90
24450;DHT22;13349;50.984;5.822;2022-10-22T08:29:01;16.00;99.90
24450;DHT22;13349;50.984;5.822;2022-10-22T08:31:28;15.90;99.90
24450;DHT22;13349;50.984;5.822;2022-10-22T08:33:57;16.00;99.90
24450;DHT22;13349;50.984;5.822;2022-10-22T08:36:24;15.90;99.90
24450;DHT22;13349;50.984;5.822;2022-10-22T08:38:51;16.00;99.90
24450;DHT22;13349;50.984;5.822;2022-10-22T08:41:21;16.00;99.90
24450;DHT22;13349;50.984;5.822;2022-10-22T08:44:03;16.00;99.90
24450;DHT22;13349;50.984;5.822;2022-10-22T08:46:59;16.10;96.60
24450;DHT22;13349;50.984;5.822;2022-10-22T08:49:34;16.10;61.80
24450;DHT22;13349;50.984;5.822;2022-10-22T08:52:03;16.20;20.60
24450;DHT22;13349;50.984;5.822;2022-10-22T08:54:39;16.30;1.00
24450;DHT22;13349;50.984;5.822;2022-10-22T08:57:22;16.30;1.00
24450;DHT22;13349;50.984;5.822;2022-10-22T08:59:56;16.30;1.00
24450;DHT22;13349;50.984;5.822;2022-10-22T09:02:34;16.40;1.00
24450;DHT22;13349;50.984;5.822;2022-10-22T09:05:20;16.40;1.00
24450;DHT22;13349;50.984;5.822;2022-10-22T09:07:49;16.40;1.00
24450;DHT22;13349;50.984;5.822;2022-10-22T09:10:19;16.40;1.00
24450;DHT22;13349;50.984;5.822;2022-10-22T09:12:47;16.40;1.00
24450;DHT22;13349;50.984;5.822;2022-10-22T09:15:16;16.50;1.00
24450;DHT22;13349;50.984;5.822;2022-10-22T09:17:53;16.50;1.00
24450;DHT22;13349;50.984;5.822;2022-10-22T09:20:27;16.50;1.00
24450;DHT22;13349;50.984;5.822;2022-10-22T09:23:06;16.70;1.00
24450;DHT22;13349;50.984;5.822;2022-10-22T09:25:37;16.70;1.00
24450;DHT22;13349;50.984;5.822;2022-10-22T09:28:06;16.70;1.00
24450;DHT22;13349;50.984;5.822;2022-10-22T09:30:36;16.60;1.00
24450;DHT22;13349;50.984;5.822;2022-10-22T09:33:11;16.70;1.00
24450;DHT22;13349;50.984;5.822;2022-10-22T09:35:46;16.70;1.00
24450;DHT22;13349;50.984;5.822;2022-10-22T09:38:18;16.80;1.00
24450;DHT22;13349;50.984;5.822;2022-10-22T09:40:48;16.80;1.00
24450;DHT22;13349;50.984;5.822;2022-10-22T09:43:16;16.80;1.00
24450;DHT22;13349;50.984;5.822;2022-10-22T09:45:44;16.80;1.00
24450;DHT22;13349;50.984;5.822;2022-10-22T09:48:18;16.70;1.00
24450;DHT22;13349;50.984;5.822;2022-10-22T09:50:49;16.70;1.00
24450;DHT22;13349;50.984;5.822;2022-10-22T09:53:24;16.70;1.00
24450;DHT22;13349;50.984;5.822;2022-10-22T09:55:54;16.60;1.00
24450;DHT22;13349;50.984;5.822;2022-10-22T09:58:22;16.70;1.00
24450;DHT22;13349;50.984;5.822;2022-10-22T10:00:53;16.80;1.00
24450;DHT22;13349;50.984;5.822;2022-10-22T10:03:22;16.80;1.00
24450;DHT22;13349;50.984;5.822;2022-10-22T10:05:52;16.90;1.00
24450;DHT22;13349;50.984;5.822;2022-10-22T10:08:21;16.80;1.00
24450;DHT22;13349;50.984;5.822;2022-10-22T10:10:51;16.80;1.00
24450;DHT22;13349;50.984;5.822;2022-10-22T10:13:31;16.80;1.00
24450;DHT22;13349;50.984;5.822;2022-10-22T10:16:07;16.80;1.00
24450;DHT22;13349;50.984;5.822;2022-10-22T10:18:49;16.90;1.00
24450;DHT22;13349;50.984;5.822;2022-10-22T10:21:27;16.90;1.00
24450;DHT22;13349;50.984;5.822;2022-10-22T10:24:01;17.10;1.00
24450;DHT22;13349;50.984;5.822;2022-10-22T10:26:34;17.20;1.00
24450;DHT22;13349;50.984;5.822;2022-10-22T10:32:08;17.20;1.00
24450;DHT22;13349;50.984;5.822;2022-10-22T10:34:42;17.10;1.00
24450;DHT22;13349;50.984;5.822;2022-10-22T10:37:19;17.00;1.00
24450;DHT22;13349;50.984;5.822;2022-10-22T10:40:03;17.00;1.00
24450;DHT22;13349;50.984;5.822;2022-10-22T10:42:38;17.10;1.00
24450;DHT22;13349;50.984;5.822;2022-10-22T10:45:16;17.10;1.00
24450;DHT22;13349;50.984;5.822;2022-10-22T10:50:43;17.10;1.00
24450;DHT22;13349;50.984;5.822;2022-10-22T10:53:23;17.20;1.00
24450;DHT22;13349;50.984;5.822;2022-10-22T10:55:58;17.20;99.90
24450;DHT22;13349;50.984;5.822;2022-10-22T10:58:33;17.20;99.90
24450;DHT22;13349;50.984;5.822;2022-10-22T11:01:14;17.30;99.90
24450;DHT22;13349;50.984;5.822;2022-10-22T11:04:07;17.40;99.90
24450;DHT22;13349;50.984;5.822;2022-10-22T11:06:39;17.40;99.90
24450;DHT22;13349;50.984;5.822;2022-10-22T11:09:17;17.60;99.90
24450;DHT22;13349;50.984;5.822;2022-10-22T11:11:50;17.60;99.90
24450;DHT22;13349;50.984;5.822;2022-10-22T11:14:22;17.70;99.90
24450;DHT22;13349;50.984;5.822;2022-10-22T11:16:55;17.70;99.90
24450;DHT22;13349;50.984;5.822;2022-10-22T11:19:31;17.70;99.90
24450;DHT22;13349;50.984;5.822;2022-10-22T11:22:07;17.90;99.90
24450;DHT22;13349;50.984;5.822;2022-10-22T11:24:40;18.20;99.90
24450;DHT22;13349;50.984;5.822;2022-10-22T11:27:14;18.50;99.90
24450;DHT22;13349;50.984;5.822;2022-10-22T11:29:50;18.80;99.90
24450;DHT22;13349;50.984;5.822;2022-10-22T11:32:20;18.90;99.90
24450;DHT22;13349;50.984;5.822;2022-10-22T11:34:50;18.90;99.90
24450;DHT22;13349;50.984;5.822;2022-10-22T11:37:20;18.90;99.90
24450;DHT22;13349;50.984;5.822;2022-10-22T11:39:51;19.10;99.90
24450;DHT22;13349;50.984;5.822;2022-10-22T11:42:21;19.10;99.90
24450;DHT22;13349;50.984;5.822;2022-10-22T11:44:58;18.80;99.90
24450;DHT22;13349;50.984;5.822;2022-10-22T11:47:28;18.80;99.90
24450;DHT22;13349;50.984;5.822;2022-10-22T11:50:17;19.50;99.90
24450;DHT22;13349;50.984;5.822;2022-10-22T11:52:53;19.80;89.40
24450;DHT22;13349;50.984;5.822;2022-10-22T11:55:41;19.70;99.90
24450;DHT22;13349;50.984;5.822;2022-10-22T11:58:28;19.30;54.70
24450;DHT22;13349;50.984;5.822;2022-10-22T12:00:57;19.20;98.50
24450;DHT22;13349;50.984;5.822;2022-10-22T12:03:38;19.40;99.90
24450;DHT22;13349;50.984;5.822;2022-10-22T12:06:17;19.40;73.70
24450;DHT22;13349;50.984;5.822;2022-10-22T12:08:51;19.10;91.50
24450;DHT22;13349;50.984;5.822;2022-10-22T12:11:25;19.40;86.60
24450;DHT22;13349;50.984;5.822;2022-10-22T12:14:02;19.50;27.60
24450;DHT22;13349;50.984;5.822;2022-10-22T12:16:39;19.80;25.50
24450;DHT22;13349;50.984;5.822;2022-10-22T12:19:13;19.80;26.40
24450;DHT22;13349;50.984;5.822;2022-10-22T12:21:43;19.70;1.00
24450;DHT22;13349;50.984;5.822;2022-10-22T12:24:13;19.70;1.00
24450;DHT22;13349;50.984;5.822;2022-10-22T12:26:42;19.70;1.00
24450;DHT22;13349;50.984;5.822;2022-10-22T12:29:12;19.20;1.00
24450;DHT22;13349;50.984;5.822;2022-10-22T12:31:43;18.80;25.70
24450;DHT22;13349;50.984;5.822;2022-10-22T12:34:14;18.90;47.50
24450;DHT22;13349;50.984;5.822;2022-10-22T12:36:41;19.00;53.20
24450;DHT22;13349;50.984;5.822;2022-10-22T12:39:12;19.30;77.60
24450;DHT22;13349;50.984;5.822;2022-10-22T12:41:41;19.20;28.10
24450;DHT22;13349;50.984;5.822;2022-10-22T12:44:13;19.20;42.90
24450;DHT22;13349;50.984;5.822;2022-10-22T12:46:41;19.90;19.70
24450;DHT22;13349;50.984;5.822;2022-10-22T12:49:14;20.00;1.00
24450;DHT22;13349;50.984;5.822;2022-10-22T12:51:43;20.10;16.50
24450;DHT22;13349;50.984;5.822;2022-10-22T12:54:21;20.00;1.00
24450;DHT22;13349;50.984;5.822;2022-10-22T12:56:51;19.60;17.50
24450;DHT22;13349;50.984;5.822;2022-10-22T12:59:20;19.50;14.70
24450;DHT22;13349;50.984;5.822;2022-10-22T13:01:52;19.20;46.90
24450;DHT22;13349;50.984;5.822;2022-10-22T13:04:31;19.10;53.60
24450;DHT22;13349;50.984;5.822;2022-10-22T13:07:20;18.80;83.20
24450;DHT22;13349;50.984;5.822;2022-10-22T13:09:57;18.80;91.50
24450;DHT22;13349;50.984;5.822;2022-10-22T13:12:33;19.00;99.90
24450;DHT22;13349;50.984;5.822;2022-10-22T13:15:19;19.30;82.50
24450;DHT22;13349;50.984;5.822;2022-10-22T13:17:47;19.00;93.20
24450;DHT22;13349;50.984;5.822;2022-10-22T13:20:18;18.80;99.90
24450;DHT22;13349;50.984;5.822;2022-10-22T13:22:56;18.60;99.90
24450;DHT22;13349;50.984;5.822;2022-10-22T13:25:27;18.60;99.90
24450;DHT22;13349;50.984;5.822;2022-10-22T13:27:58;18.70;99.90
24450;DHT22;13349;50.984;5.822;2022-10-22T13:30:29;18.70;99.90
24450;DHT22;13349;50.984;5.822;2022-10-22T13:32:58;18.50;99.90
24450;DHT22;13349;50.984;5.822;2022-10-22T13:35:27;18.40;99.90
24450;DHT22;13349;50.984;5.822;2022-10-22T13:37:55;18.40;99.90
24450;DHT22;13349;50.984;5.822;2022-10-22T13:40:22;18.60;99.90
24450;DHT22;13349;50.984;5.822;2022-10-22T13:42:49;18.80;99.90
24450;DHT22;13349;50.984;5.822;2022-10-22T13:45:18;19.10;85.50
24450;DHT22;13349;50.984;5.822;2022-10-22T13:47:48;19.50;74.90
24450;DHT22;13349;50.984;5.822;2022-10-22T13:50:18;20.10;60.20
24450;DHT22;13349;50.984;5.822;2022-10-22T13:52:48;20.30;1.00
24450;DHT22;13349;50.984;5.822;2022-10-22T13:55:18;20.40;1.00
24450;DHT22;13349;50.984;5.822;2022-10-22T13:57:46;20.40;1.00
24450;DHT22;13349;50.984;5.822;2022-10-22T14:00:16;20.30;1.00
24450;DHT22;13349;50.984;5.822;2022-10-22T14:02:47;19.90;1.00
24450;DHT22;13349;50.984;5.822;2022-10-22T14:05:16;19.70;1.00
24450;DHT22;13349;50.984;5.822;2022-10-22T14:07:44;19.70;1.00
24450;DHT22;13349;50.984;5.822;2022-10-22T14:10:17;19.80;1.00
24450;DHT22;13349;50.984;5.822;2022-10-22T14:12:45;19.90;1.00
24450;DHT22;13349;50.984;5.822;2022-10-22T14:15:14;19.50;1.00
24450;DHT22;13349;50.984;5.822;2022-10-22T14:17:45;19.40;1.00
24450;DHT22;13349;50.984;5.822;2022-10-22T14:20:16;19.40;1.00
24450;DHT22;13349;50.984;5.822;2022-10-22T14:22:44;19.70;1.00
24450;DHT22;13349;50.984;5.822;2022-10-22T14:25:14;19.50;1.00
24450;DHT22;13349;50.984;5.822;2022-10-22T14:27:41;19.40;1.00
24450;DHT22;13349;50.984;5.822;2022-10-22T14:30:12;19.10;1.00
24450;DHT22;13349;50.984;5.822;2022-10-22T14:32:41;19.40;1.00
24450;DHT22;13349;50.984;5.822;2022-10-22T14:35:12;19.70;1.00
24450;DHT22;13349;50.984;5.822;2022-10-22T14:37:39;19.60;1.00
24450;DHT22;13349;50.984;5.822;2022-10-22T14:40:08;19.50;1.00
24450;DHT22;13349;50.984;5.822;2022-10-22T14:42:38;19.40;1.00
24450;DHT22;13349;50.984;5.822;2022-10-22T14:45:12;19.60;1.00
24450;DHT22;13349;50.984;5.822;2022-10-22T14:47:40;19.50;1.00
24450;DHT22;13349;50.984;5.822;2022-10-22T14:50:07;19.40;1.00
24450;DHT22;13349;50.984;5.822;2022-10-22T14:52:36;19.20;1.00
24450;DHT22;13349;50.984;5.822;2022-10-22T14:55:04;19.00;1.00
24450;DHT22;13349;50.984;5.822;2022-10-22T14:57:31;18.90;13.20
24450;DHT22;13349;50.984;5.822;2022-10-22T14:59:58;18.70;15.60
24450;DHT22;13349;50.984;5.822;2022-10-22T15:02:26;18.60;22.40
24450;DHT22;13349;50.984;5.822;2022-10-22T15:04:53;18.60;50.80
24450;DHT22;13349;50.984;5.822;2022-10-22T15:07:20;18.50;86.40
24450;DHT22;13349;50.984;5.822;2022-10-22T15:09:50;18.40;91.10
24450;DHT22;13349;50.984;5.822;2022-10-22T15:12:18;18.30;99.90
24450;DHT22;13349;50.984;5.822;2022-10-22T15:14:45;18.30;99.90
24450;DHT22;13349;50.984;5.822;2022-10-22T15:17:12;18.30;99.90
24450;DHT22;13349;50.984;5.822;2022-10-22T15:19:40;18.30;99.90
24450;DHT22;13349;50.984;5.822;2022-10-22T15:22:08;18.30;99.90
24450;DHT22;13349;50.984;5.822;2022-10-22T15:24:35;18.30;99.90
24450;DHT22;13349;50.984;5.822;2022-10-22T15:27:04;18.30;99.90
24450;DHT22;13349;50.984;5.822;2022-10-22T15:29:31;18.30;99.90
24450;DHT22;13349;50.984;5.822;2022-10-22T15:31:59;18.20;99.90
24450;DHT22;13349;50.984;5.822;2022-10-22T15:34:28;18.10;99.90
24450;DHT22;13349;50.984;5.822;2022-10-22T15:36:57;18.10;99.90
24450;DHT22;13349;50.984;5.822;2022-10-22T15:39:25;17.90;99.90
24450;DHT22;13349;50.984;5.822;2022-10-22T15:41:52;17.90;99.90
24450;DHT22;13349;50.984;5.822;2022-10-22T15:44:23;17.70;99.90
24450;DHT22;13349;50.984;5.822;2022-10-22T15:46:51;17.60;99.90
24450;DHT22;13349;50.984;5.822;2022-10-22T15:49:19;17.60;99.90
24450;DHT22;13349;50.984;5.822;2022-10-22T15:51:47;17.50;99.90
24450;DHT22;13349;50.984;5.822;2022-10-22T15:54:17;17.40;99.90
24450;DHT22;13349;50.984;5.822;2022-10-22T15:56:45;17.30;99.90
24450;DHT22;13349;50.984;5.822;2022-10-22T15:59:14;17.30;99.90
24450;DHT22;13349;50.984;5.822;2022-10-22T16:01:43;17.40;99.90
24450;DHT22;13349;50.984;5.822;2022-10-22T16:04:10;17.40;99.90
24450;DHT22;13349;50.984;5.822;2022-10-22T16:06:39;17.30;99.90